createdAt,value
2023-05-12T00:02:26.086Z,8.93
2023-05-12T00:05:15.853Z,11.50
2023-05-12T00:08:02.474Z,9.95
2023-05-12T00:10:51.488Z,13.55
2023-05-12T00:13:40.219Z,10.60
2023-05-12T00:16:26.548Z,9.93
2023-05-12T00:19:13.148Z,10.27
2023-05-12T00:22:08.715Z,12.25
2023-05-12T00:24:55.732Z,9.05
2023-05-12T00:27:41.857Z,13.60
2023-05-12T00:30:30.226Z,13.18
2023-05-12T00:33:17.348Z,11.20
2023-05-12T00:36:07.272Z,10.00
2023-05-12T00:38:53.321Z,10.98
2023-05-12T00:41:39.951Z,11.70
2023-05-12T00:44:29.275Z,10.18
2023-05-12T00:47:15.788Z,10.88
2023-05-12T00:50:06.027Z,9.55
2023-05-12T00:52:53.288Z,10.68
2023-05-12T00:55:39.421Z,11.07
2023-05-12T00:58:28.122Z,14.27
2023-05-12T01:01:20.873Z,9.73
2023-05-12T01:04:10.987Z,13.35
2023-05-12T01:07:06.022Z,12.05
2023-05-12T01:09:56.753Z,10.55
2023-05-12T01:12:45.877Z,12.27
2023-05-12T01:15:33.012Z,11.80
2023-05-12T01:18:20.727Z,10.90
2023-05-12T01:21:11.080Z,11.52
2023-05-12T01:23:59.815Z,12.57
2023-05-12T01:29:35.921Z,11.63
2023-05-12T01:32:23.861Z,13.23
2023-05-12T01:35:16.867Z,13.73
2023-05-12T01:38:16.234Z,13.82
2023-05-12T01:41:11.426Z,11.52
2023-05-12T01:43:58.208Z,10.30
2023-05-12T01:46:45.038Z,13.30
2023-05-12T01:49:38.386Z,12.80
2023-05-12T01:52:28.392Z,15.25
2023-05-12T01:55:14.567Z,15.57
2023-05-12T01:58:09.067Z,11.35
2023-05-12T02:00:55.480Z,12.80
2023-05-12T02:03:41.382Z,11.23
2023-05-12T02:06:36.747Z,12.52
2023-05-12T02:09:23.087Z,10.85
2023-05-12T02:12:17.023Z,13.85
2023-05-12T02:15:04.654Z,11.60
2023-05-12T02:17:54.631Z,11.87
2023-05-12T02:20:42.000Z,12.27
2023-05-12T02:23:31.493Z,12.98
2023-05-12T02:26:19.764Z,10.85
2023-05-12T02:29:06.086Z,10.65
2023-05-12T02:31:52.509Z,11.82
2023-05-12T02:34:39.849Z,13.75
2023-05-12T02:37:26.050Z,13.10
2023-05-12T02:40:16.373Z,12.63
2023-05-12T02:43:04.117Z,13.90
2023-05-12T02:45:55.452Z,12.40
2023-05-12T02:48:41.706Z,14.38
2023-05-12T02:51:29.413Z,15.73
2023-05-12T02:54:15.849Z,18.73
2023-05-12T02:57:06.733Z,14.65
2023-05-12T02:59:52.570Z,16.25
2023-05-12T03:02:40.109Z,14.20
2023-05-12T03:05:29.605Z,11.30
2023-05-12T03:08:24.542Z,11.93
2023-05-12T03:11:10.582Z,17.13
2023-05-12T03:13:56.886Z,15.48
2023-05-12T03:16:42.937Z,14.60
2023-05-12T03:19:30.349Z,14.30
2023-05-12T03:22:18.786Z,12.02
2023-05-12T03:25:05.472Z,13.88
2023-05-12T03:27:51.589Z,11.23
2023-05-12T03:30:38.181Z,13.23
2023-05-12T03:33:24.348Z,12.57
2023-05-12T03:36:12.624Z,12.45
2023-05-12T03:38:58.924Z,12.15
2023-05-12T03:41:54.290Z,17.38
2023-05-12T03:44:40.981Z,13.68
2023-05-12T03:47:29.080Z,12.32
2023-05-12T03:50:15.794Z,16.88
2023-05-12T03:53:03.317Z,16.58
2023-05-12T03:55:56.261Z,14.52
2023-05-12T03:58:56.427Z,11.40
2023-05-12T04:01:48.383Z,12.38
2023-05-12T04:04:37.317Z,14.75
2023-05-12T04:07:31.241Z,10.80
2023-05-12T04:10:25.066Z,15.43
2023-05-12T04:13:16.945Z,12.65
2023-05-12T04:16:09.906Z,13.18
2023-05-12T04:18:57.763Z,12.50
2023-05-12T04:21:45.332Z,13.10
2023-05-12T04:24:31.918Z,12.80
2023-05-12T04:27:19.139Z,11.10
2023-05-12T04:30:09.779Z,11.80
2023-05-12T04:33:00.276Z,11.07
2023-05-12T04:35:47.495Z,10.65
2023-05-12T04:38:37.411Z,14.35
2023-05-12T04:41:23.954Z,12.38
2023-05-12T04:44:11.891Z,12.13
2023-05-12T04:47:00.130Z,9.93
2023-05-12T04:49:47.990Z,14.57
2023-05-12T04:52:34.604Z,11.23
2023-05-12T04:55:22.417Z,13.68
2023-05-12T04:58:09.156Z,8.55
2023-05-12T05:00:57.052Z,10.60
2023-05-12T05:03:43.751Z,9.20
2023-05-12T05:06:31.265Z,9.02
2023-05-12T05:09:18.373Z,9.27
2023-05-12T05:12:06.187Z,9.98
2023-05-12T05:14:53.065Z,38.78
2023-05-12T05:17:40.517Z,11.02
2023-05-12T05:20:29.348Z,14.90
2023-05-12T05:23:16.346Z,14.70
2023-05-12T05:26:02.881Z,10.57
2023-05-12T05:28:55.106Z,10.77
2023-05-12T05:31:43.535Z,10.38
2023-05-12T05:34:31.610Z,8.27
2023-05-12T05:37:19.505Z,11.98
2023-05-12T05:40:07.867Z,9.23
2023-05-12T05:42:54.144Z,10.30
2023-05-12T05:45:40.682Z,11.93
2023-05-12T05:48:27.919Z,11.57
2023-05-12T05:51:15.458Z,12.13
2023-05-12T05:54:04.857Z,13.68
2023-05-12T05:56:51.731Z,12.88
2023-05-12T05:59:39.397Z,10.63
2023-05-12T06:02:26.303Z,12.27
2023-05-12T06:05:17.054Z,12.10
2023-05-12T06:08:05.775Z,9.98
2023-05-12T06:10:53.066Z,11.10
2023-05-12T06:13:40.071Z,10.23
2023-05-12T06:16:26.756Z,8.90
2023-05-12T06:19:13.481Z,6.90
2023-05-12T06:22:00.251Z,12.65
2023-05-12T06:24:48.206Z,8.80
2023-05-12T06:27:36.673Z,9.98
2023-05-12T06:30:30.065Z,9.43
2023-05-12T06:33:23.616Z,11.88
2023-05-12T06:36:12.915Z,6.65
2023-05-12T06:39:02.976Z,9.38
2023-05-12T06:41:52.393Z,8.43
2023-05-12T06:44:43.295Z,8.07
2023-05-12T06:47:32.135Z,9.30
2023-05-12T06:50:21.054Z,7.75
2023-05-12T06:53:21.854Z,7.97
2023-05-12T06:56:17.546Z,12.95
2023-05-12T06:59:08.677Z,11.30
2023-05-12T07:02:03.365Z,8.18
2023-05-12T07:04:54.119Z,7.70
2023-05-12T07:07:45.366Z,6.50
2023-05-12T07:10:39.164Z,6.60
2023-05-12T07:13:29.946Z,6.45
2023-05-12T07:16:22.510Z,9.00
2023-05-12T07:19:14.078Z,13.35
2023-05-12T07:22:05.689Z,8.45
2023-05-12T07:24:53.907Z,8.98
2023-05-12T07:27:48.350Z,9.82
2023-05-12T07:30:37.765Z,8.68
2023-05-12T07:33:27.965Z,11.98
2023-05-12T07:36:23.132Z,6.32
2023-05-12T07:39:20.555Z,6.43
2023-05-12T07:42:17.625Z,7.57
2023-05-12T07:45:06.353Z,8.88
2023-05-12T07:47:59.930Z,8.20
2023-05-12T07:50:58.167Z,8.27
2023-05-12T07:53:52.715Z,5.38
2023-05-12T07:56:44.058Z,7.63
2023-05-12T07:59:33.387Z,5.82
2023-05-12T08:05:11.108Z,7.53
2023-05-12T08:08:06.152Z,8.07
2023-05-12T08:10:55.294Z,7.80
2023-05-12T08:13:46.334Z,11.25
2023-05-12T08:16:35.648Z,4.00
2023-05-12T08:19:24.082Z,4.55
2023-05-12T08:22:11.535Z,9.55
2023-05-12T08:24:59.176Z,5.53
2023-05-12T08:27:46.396Z,7.47
2023-05-12T08:30:34.762Z,6.38
2023-05-12T08:33:21.793Z,5.88
2023-05-12T08:36:10.302Z,9.13
2023-05-12T08:38:58.569Z,5.18
2023-05-12T08:42:11.746Z,4.80
2023-05-12T08:45:00.722Z,3.80
2023-05-12T08:47:49.545Z,6.35
2023-05-12T08:50:37.150Z,6.85
2023-05-12T08:53:26.331Z,5.30
2023-05-12T08:59:07.202Z,5.40
2023-05-12T09:01:56.503Z,7.25
2023-05-12T09:04:45.726Z,9.05
2023-05-12T09:07:34.180Z,7.22
2023-05-12T09:13:21.119Z,4.78
2023-05-12T09:16:13.625Z,7.70
2023-05-12T09:19:04.576Z,7.72
2023-05-12T09:21:56.703Z,7.90
2023-05-12T09:24:45.755Z,8.27
2023-05-12T09:27:33.243Z,6.60
2023-05-12T09:30:30.467Z,10.73
2023-05-12T09:33:17.629Z,11.48
2023-05-12T09:36:03.649Z,9.05
2023-05-12T09:39:07.197Z,13.88
2023-05-12T09:41:54.324Z,5.50
2023-05-12T09:44:42.550Z,6.80
2023-05-12T09:47:36.222Z,10.10
2023-05-12T09:50:24.069Z,9.00
2023-05-12T09:53:12.341Z,7.63
2023-05-12T09:56:00.515Z,8.23
2023-05-12T09:58:49.213Z,6.32
2023-05-12T10:01:37.333Z,5.75
2023-05-12T10:04:23.984Z,8.52
2023-05-12T10:07:13.424Z,7.18
2023-05-12T10:10:02.393Z,8.57
2023-05-12T10:12:49.650Z,9.00
2023-05-12T10:15:37.440Z,10.13
2023-05-12T10:18:25.287Z,8.52
2023-05-12T10:21:13.328Z,6.95
2023-05-12T10:24:04.418Z,7.55
2023-05-12T10:26:52.386Z,5.40
2023-05-12T10:29:39.928Z,9.95
2023-05-12T10:32:27.354Z,6.18
2023-05-12T10:35:16.307Z,6.75
2023-05-12T10:38:14.028Z,10.10
2023-05-12T10:41:02.270Z,6.22
2023-05-12T10:43:50.662Z,7.40
2023-05-12T10:46:38.066Z,5.17
2023-05-12T10:49:33.639Z,7.07
2023-05-12T10:52:20.504Z,7.70
2023-05-12T10:55:12.678Z,5.97
2023-05-12T10:58:13.421Z,6.63
2023-05-12T11:03:59.221Z,6.55
2023-05-12T11:06:47.025Z,6.10
2023-05-12T11:09:36.920Z,11.02
2023-05-12T11:12:33.303Z,10.40
2023-05-12T11:15:20.138Z,8.60
2023-05-12T11:18:06.318Z,6.13
2023-05-12T11:20:52.838Z,6.40
2023-05-12T11:23:38.595Z,12.32
2023-05-12T11:26:25.119Z,7.70
2023-05-12T11:29:11.417Z,9.77
2023-05-12T11:31:58.998Z,8.00
2023-05-12T11:34:45.584Z,11.30
2023-05-12T11:37:37.032Z,6.80
2023-05-12T11:40:23.864Z,10.85
2023-05-12T11:43:12.042Z,11.88
2023-05-12T11:45:59.932Z,8.00
2023-05-12T11:48:54.889Z,8.45
2023-05-12T11:51:43.762Z,6.55
2023-05-12T11:54:30.792Z,5.65
2023-05-12T11:57:28.638Z,3.92
2023-05-12T12:00:15.830Z,9.30
2023-05-12T12:03:09.919Z,11.15
2023-05-12T12:06:03.651Z,8.20
2023-05-12T12:08:55.666Z,12.25
2023-05-12T12:11:41.976Z,7.32
2023-05-12T12:14:28.590Z,8.00
2023-05-12T12:17:15.474Z,8.73
2023-05-12T12:20:01.799Z,6.88
2023-05-12T12:22:48.450Z,6.05
2023-05-12T12:25:34.834Z,7.45
2023-05-12T12:28:21.380Z,8.98
2023-05-12T12:31:07.164Z,6.70
2023-05-12T12:33:53.552Z,8.80
2023-05-12T12:36:39.535Z,5.40
2023-05-12T12:39:25.962Z,8.85
2023-05-12T12:42:11.574Z,4.63
2023-05-12T12:44:58.130Z,7.20
2023-05-12T12:47:44.338Z,8.15
2023-05-12T12:50:30.650Z,16.90
2023-05-12T12:53:17.229Z,8.38
2023-05-12T12:56:04.500Z,6.40
2023-05-12T12:58:51.464Z,8.98
2023-05-12T13:01:38.076Z,3.58
2023-05-12T13:04:24.430Z,4.30
2023-05-12T13:07:11.011Z,4.78
2023-05-12T13:09:57.267Z,5.25
2023-05-12T13:12:44.571Z,10.27
2023-05-12T13:15:33.113Z,3.83
2023-05-12T13:18:20.922Z,5.25
2023-05-12T13:21:07.280Z,5.72
2023-05-12T13:23:55.299Z,5.40
2023-05-12T13:26:42.882Z,4.25
2023-05-12T13:29:30.863Z,4.13
2023-05-12T13:32:21.674Z,7.10
2023-05-12T13:35:10.473Z,6.00
2023-05-12T13:37:57.173Z,5.07
2023-05-12T13:40:44.820Z,5.95
2023-05-12T13:43:31.432Z,7.07
2023-05-12T13:46:18.296Z,5.80
2023-05-12T13:49:05.240Z,5.13
2023-05-12T13:51:57.858Z,7.40
2023-05-12T13:54:50.474Z,5.70
2023-05-12T13:57:37.190Z,6.10
2023-05-12T14:00:24.560Z,6.60
2023-05-12T14:03:22.776Z,7.38
2023-05-12T14:06:19.309Z,3.53
2023-05-12T14:09:17.198Z,5.22
2023-05-12T14:12:05.450Z,4.95
2023-05-12T14:14:58.115Z,6.15
2023-05-12T14:17:51.829Z,5.70
2023-05-12T14:20:46.347Z,3.17
2023-05-12T14:23:39.817Z,6.40
2023-05-12T14:26:33.461Z,4.93
2023-05-12T14:29:22.801Z,9.32
2023-05-12T14:32:09.167Z,4.68
2023-05-12T14:34:55.751Z,6.47
2023-05-12T14:37:43.309Z,3.90
2023-05-12T14:40:32.398Z,9.32
2023-05-12T14:43:18.824Z,9.40
2023-05-12T14:46:06.378Z,4.10
2023-05-12T14:48:53.035Z,5.10
2023-05-12T14:51:42.184Z,9.88
2023-05-12T14:54:36.218Z,5.70
2023-05-12T14:57:24.863Z,5.88
2023-05-12T15:00:15.246Z,5.25
2023-05-12T15:03:04.648Z,5.22
2023-05-12T15:08:41.183Z,5.65
2023-05-12T15:11:47.855Z,3.55
2023-05-12T15:14:37.654Z,2.60
2023-05-12T15:17:28.587Z,7.65
2023-05-12T15:20:18.639Z,3.95
2023-05-12T15:23:05.707Z,9.98
2023-05-12T15:25:52.406Z,12.13
2023-05-12T15:28:42.556Z,9.18
2023-05-12T15:31:41.577Z,2.45
2023-05-12T15:34:40.948Z,8.15
2023-05-12T15:37:28.608Z,7.22
2023-05-12T15:40:18.301Z,7.32
2023-05-12T15:43:15.358Z,7.15
2023-05-12T15:46:05.707Z,11.13
2023-05-12T15:48:55.233Z,26.70
2023-05-12T15:51:44.258Z,6.63
2023-05-12T15:54:38.892Z,10.30
2023-05-12T15:57:29.484Z,39.80
2023-05-12T16:00:27.201Z,14.25
2023-05-12T16:03:25.264Z,6.95
2023-05-12T16:06:18.142Z,5.22
2023-05-12T16:09:15.453Z,13.48
2023-05-12T16:12:14.523Z,7.05
2023-05-12T16:15:12.521Z,7.80
2023-05-12T16:18:05.878Z,10.77
2023-05-12T16:21:02.466Z,10.15
2023-05-12T16:23:49.977Z,4.18
2023-05-12T16:26:37.908Z,6.55
2023-05-12T16:29:28.792Z,4.25
2023-05-12T16:32:31.210Z,12.57
2023-05-12T16:35:32.183Z,4.60
2023-05-12T16:38:27.675Z,7.13
2023-05-12T16:41:35.428Z,8.88
2023-05-12T16:44:24.521Z,6.18
2023-05-12T16:50:18.404Z,8.82
2023-05-12T16:53:11.656Z,5.65
2023-05-12T16:56:13.408Z,6.70
2023-05-12T16:59:20.968Z,6.53
2023-05-12T17:02:14.092Z,6.75
2023-05-12T17:05:02.470Z,9.40
2023-05-12T17:07:55.812Z,7.65
2023-05-12T17:10:54.580Z,6.85
2023-05-12T17:13:51.448Z,10.35
2023-05-12T17:16:52.718Z,9.95
2023-05-12T17:19:42.179Z,6.55
2023-05-12T17:22:29.349Z,4.93
2023-05-12T17:25:17.018Z,6.35
2023-05-12T17:28:03.361Z,3.65
2023-05-12T17:30:50.234Z,3.95
2023-05-12T17:33:36.599Z,4.63
2023-05-12T17:36:23.310Z,4.95
2023-05-12T17:39:09.149Z,6.45
2023-05-12T17:41:55.639Z,6.75
2023-05-12T17:44:43.736Z,6.10
2023-05-12T17:47:30.944Z,9.40
2023-05-12T17:50:17.311Z,7.50
2023-05-12T17:53:08.911Z,7.47
2023-05-12T17:55:54.996Z,5.57
2023-05-12T17:58:51.915Z,5.80
2023-05-12T18:01:38.929Z,10.43
2023-05-12T18:04:25.577Z,5.85
2023-05-12T18:07:11.623Z,5.95
2023-05-12T18:10:01.794Z,3.42
2023-05-12T18:12:48.582Z,4.13
2023-05-12T18:15:38.433Z,5.47
2023-05-12T18:18:24.581Z,7.47
2023-05-12T18:21:14.247Z,6.07
2023-05-12T18:24:01.055Z,7.13
2023-05-12T18:26:48.415Z,6.55
2023-05-12T18:29:36.067Z,3.30
2023-05-12T18:32:25.637Z,7.60
2023-05-12T18:35:15.980Z,6.30
2023-05-12T18:38:02.350Z,8.52
2023-05-12T18:40:50.534Z,9.25
2023-05-12T18:43:38.013Z,8.02
2023-05-12T18:46:24.059Z,8.05
2023-05-12T18:49:16.797Z,10.43
2023-05-12T18:52:05.714Z,11.43
2023-05-12T18:54:52.348Z,18.75
2023-05-12T18:57:38.547Z,24.98
2023-05-12T19:00:27.613Z,28.77
2023-05-12T19:03:14.112Z,24.73
2023-05-12T19:06:05.824Z,19.40
2023-05-12T19:08:55.247Z,16.75
2023-05-12T19:11:45.147Z,19.98
2023-05-12T19:14:38.238Z,11.13
2023-05-12T19:17:33.002Z,15.75
2023-05-12T19:20:26.898Z,11.73
2023-05-12T19:23:23.627Z,9.35
2023-05-12T19:26:17.818Z,10.23
2023-05-12T19:29:12.583Z,8.63
2023-05-12T19:32:01.042Z,11.43
2023-05-12T19:34:54.068Z,11.10
2023-05-12T19:37:43.077Z,8.20
2023-05-12T19:40:30.706Z,8.45
2023-05-12T19:43:17.337Z,6.20
2023-05-12T19:46:06.348Z,9.77
2023-05-12T19:48:54.895Z,7.60
2023-05-12T19:51:42.348Z,11.55
2023-05-12T19:54:28.631Z,13.10
2023-05-12T19:57:15.837Z,11.70
2023-05-12T20:00:02.261Z,9.90
2023-05-12T20:02:59.093Z,10.05
2023-05-12T20:05:46.673Z,9.85
2023-05-12T20:08:36.456Z,8.93
2023-05-12T20:11:28.444Z,12.85
2023-05-12T20:14:18.997Z,13.18
2023-05-12T20:17:07.571Z,16.40
2023-05-12T20:19:57.395Z,17.73
2023-05-12T20:22:43.424Z,12.88
2023-05-12T20:25:32.709Z,16.65
2023-05-12T20:28:18.796Z,10.82
2023-05-12T20:31:05.335Z,14.75
2023-05-12T20:33:56.976Z,15.90
2023-05-12T20:36:47.341Z,14.82
2023-05-12T20:39:33.579Z,9.63
2023-05-12T20:42:23.034Z,13.13
2023-05-12T20:45:09.519Z,14.70
2023-05-12T20:47:57.370Z,12.02
2023-05-12T20:50:48.738Z,14.50
2023-05-12T20:53:37.251Z,13.15
2023-05-12T20:56:27.512Z,14.68
2023-05-12T20:59:14.690Z,16.02
2023-05-12T21:02:05.191Z,11.80
2023-05-12T21:04:57.010Z,13.18
2023-05-12T21:07:48.736Z,15.35
2023-05-12T21:10:42.708Z,18.83
2023-05-12T21:13:32.006Z,21.10
2023-05-12T21:16:24.479Z,20.73
2023-05-12T21:19:15.418Z,16.73
2023-05-12T21:22:10.803Z,19.00
2023-05-12T21:24:59.687Z,16.08
2023-05-12T21:27:49.589Z,16.52
2023-05-12T21:30:38.856Z,13.75
2023-05-12T21:33:30.695Z,15.75
2023-05-12T21:36:23.260Z,12.18
2023-05-12T21:39:17.409Z,14.18
2023-05-12T21:42:07.294Z,14.05
2023-05-12T21:44:58.692Z,9.20
2023-05-12T21:47:52.332Z,15.13
2023-05-12T21:50:42.063Z,11.00
2023-05-12T21:53:31.242Z,11.60
2023-05-12T21:59:13.524Z,17.02
2023-05-12T22:02:02.944Z,16.33
2023-05-12T22:04:49.815Z,16.48
2023-05-12T22:07:39.240Z,14.18
2023-05-12T22:10:27.952Z,12.23
2023-05-12T22:13:17.256Z,14.95
2023-05-12T22:16:12.422Z,13.50
2023-05-12T22:19:03.471Z,18.65
2023-05-12T22:21:53.193Z,23.50
2023-05-12T22:24:40.677Z,19.35
2023-05-12T22:27:28.605Z,15.45
2023-05-12T22:30:19.918Z,17.38
2023-05-12T22:33:11.234Z,14.27
2023-05-12T22:36:00.201Z,15.60
2023-05-12T22:38:46.313Z,19.88
2023-05-12T22:41:32.250Z,13.88
2023-05-12T22:44:18.252Z,15.77
2023-05-12T22:47:05.945Z,13.52
2023-05-12T22:49:51.993Z,9.60
2023-05-12T22:52:38.652Z,13.95
2023-05-12T22:55:27.477Z,18.98
2023-05-12T22:58:14.010Z,18.63
2023-05-12T23:01:01.101Z,11.90
2023-05-12T23:03:47.171Z,13.13
2023-05-12T23:06:33.428Z,11.63
2023-05-12T23:09:19.395Z,13.40
2023-05-12T23:12:05.696Z,13.85
2023-05-12T23:14:51.742Z,14.40
2023-05-12T23:17:37.886Z,14.43
2023-05-12T23:20:36.084Z,9.75
2023-05-12T23:23:21.691Z,14.95
2023-05-12T23:26:09.256Z,11.75
2023-05-12T23:28:55.015Z,13.55
2023-05-12T23:31:41.076Z,12.63
2023-05-12T23:34:26.860Z,11.82
2023-05-12T23:37:12.993Z,10.57
2023-05-12T23:39:59.706Z,14.52
2023-05-12T23:42:46.106Z,16.15
2023-05-12T23:45:32.091Z,14.07
2023-05-12T23:48:18.248Z,12.30
2023-05-12T23:51:04.505Z,12.15
2023-05-12T23:53:51.850Z,17.48
2023-05-12T23:56:37.478Z,16.05
2023-05-12T23:59:23.595Z,14.13
